Time;durP1;ratioP1;P1;durP2;ratioP2;P2;SDS_P1;SDS_P2;PMS_P1;PMS_P2;Temp;Humidity;BMP_temperature;BMP_pressure;BME280_temperature;BME280_humidity;BME280_pressure;Samples;Min_cycle;Max_cycle;Signal;HPM_P1;HPM_P2
2021/04/28 00:01:59;;;;;;;;;3.00;3.00;;;;;21.36;18.77;99830.69;4976699;28;8900;-47
2021/04/28 00:04:24;;;;;;;;;3.20;3.20;;;;;21.26;18.88;99828.34;4980602;28;8892;-47
2021/04/28 00:06:50;;;;;;;;;2.00;2.00;;;;;21.28;18.88;99826.06;4985933;28;8844;-47
2021/04/28 00:09:15;;;;;;;;;4.00;4.00;;;;;21.26;18.81;99831.88;4988383;28;8799;-47
2021/04/28 00:11:41;;;;;;;;;3.00;3.00;;;;;21.20;19.03;99822.28;4983988;28;8854;-48
2021/04/28 00:14:08;;;;;;;;;2.00;2.00;;;;;21.21;18.94;99825.81;4986533;28;8797;-48
2021/04/28 00:16:34;;;;;;;;;3.60;3.60;;;;;21.16;18.98;99821.34;4987118;28;11422;-47
2021/04/28 00:19:01;;;;;;;;;2.20;2.20;;;;;21.12;19.10;99823.91;4984411;28;8894;-47
2021/04/28 00:21:29;;;;;;;;;3.00;3.00;;;;;21.07;18.88;99821.41;4978949;28;8946;-47
2021/04/28 00:23:55;;;;;;;;;3.00;3.00;;;;;21.07;19.05;99820.59;4982983;28;9616;-48
2021/04/28 00:26:20;;;;;;;;;3.40;3.00;;;;;20.99;19.04;99825.78;4983145;28;8804;-47
2021/04/28 00:28:46;;;;;;;;;2.75;2.75;;;;;20.97;19.08;99816.31;4976867;28;8780;-47
2021/04/28 00:31:12;;;;;;;;;3.00;3.00;;;;;20.93;19.04;99815.34;4976758;28;8829;-47
2021/04/28 00:33:37;;;;;;;;;3.00;3.00;;;;;20.85;19.20;99808.00;4981605;28;8833;-48
2021/04/28 00:36:03;;;;;;;;;2.00;2.00;;;;;20.89;19.24;99822.66;4981156;28;8767;-47
2021/04/28 00:38:29;;;;;;;;;2.80;2.80;;;;;20.85;19.33;99817.03;4984006;28;8970;-48
2021/04/28 00:40:55;;;;;;;;;4.50;4.00;;;;;20.83;19.18;99813.03;4978517;28;8955;-48
2021/04/28 00:43:22;;;;;;;;;3.00;2.00;;;;;20.77;19.32;99815.97;4980099;28;8798;-47
2021/04/28 00:45:48;;;;;;;;;2.60;2.60;;;;;20.74;19.22;99804.84;4980834;28;9358;-48
2021/04/28 00:48:13;;;;;;;;;2.75;2.75;;;;;20.74;19.29;99805.66;4980188;28;8780;-47
2021/04/28 00:50:43;;;;;;;;;2.75;2.75;;;;;20.70;19.54;99801.16;4984221;28;8882;-47
2021/04/28 00:53:10;;;;;;;;;2.20;2.00;;;;;20.69;19.53;99805.84;4986455;28;8900;-47
2021/04/28 00:55:37;;;;;;;;;2.00;2.00;;;;;20.65;19.48;99802.16;4983217;28;8752;-48
2021/04/28 00:58:04;;;;;;;;;2.00;2.00;;;;;20.65;19.54;99806.81;4978913;28;8820;-48
2021/04/28 01:00:30;;;;;;;;;2.60;2.40;;;;;20.57;19.44;99802.97;4977503;28;8813;-47
2021/04/28 01:02:56;;;;;;;;;2.00;2.00;;;;;20.57;19.42;99801.03;4983442;28;8763;-48
2021/04/28 01:05:22;;;;;;;;;3.20;2.20;;;;;20.54;19.66;99800.91;4972357;28;8914;-48
2021/04/28 01:07:49;;;;;;;;;3.00;3.00;;;;;20.52;19.62;99803.16;4976339;28;8781;-47
2021/04/28 01:10:20;;;;;;;;;2.00;2.00;;;;;20.50;19.61;99794.47;4972210;28;8788;-47
2021/04/28 01:12:45;;;;;;;;;3.60;2.80;;;;;20.49;19.57;99803.81;4985404;28;8815;-47
2021/04/28 01:15:14;;;;;;;;;2.00;2.00;;;;;20.46;19.55;99793.53;4985110;28;9519;-47
2021/04/28 01:17:39;;;;;;;;;2.00;2.00;;;;;20.39;19.66;99799.53;4983750;28;8847;-47
2021/04/28 01:20:11;;;;;;;;;2.00;2.00;;;;;20.38;19.67;99795.97;4974354;28;8779;-48
2021/04/28 01:22:38;;;;;;;;;2.80;2.80;;;;;20.36;19.55;99791.97;4981497;28;8756;-48
2021/04/28 01:25:05;;;;;;;;;3.00;3.00;;;;;20.35;19.70;99798.56;4985152;28;8803;-47
2021/04/28 01:27:32;;;;;;;;;2.00;2.00;;;;;20.33;19.78;99796.16;4984926;28;8808;-47
2021/04/28 01:29:59;;;;;;;;;2.40;2.40;;;;;20.27;19.70;99789.28;4976631;28;8790;-47
2021/04/28 01:32:24;;;;;;;;;3.00;3.00;;;;;20.31;19.61;99792.94;4979650;28;8786;-47
2021/04/28 01:34:53;;;;;;;;;3.00;2.00;;;;;20.29;19.74;99797.16;4980069;28;8774;-47
2021/04/28 01:37:19;;;;;;;;;2.40;2.00;;;;;20.27;19.83;99791.22;4983021;28;8796;-47
2021/04/28 01:39:47;;;;;;;;;2.80;2.80;;;;;20.24;19.78;99792.66;4983283;28;8917;-47
2021/04/28 01:42:13;;;;;;;;;1.80;1.80;;;;;20.22;19.85;99789.47;4984976;28;8772;-47
2021/04/28 01:44:39;;;;;;;;;3.40;3.40;;;;;20.18;19.73;99785.78;4979062;28;8789;-47
2021/04/28 01:47:05;;;;;;;;;3.00;3.00;;;;;20.18;19.88;99792.03;4983229;28;8802;-47
2021/04/28 01:49:31;;;;;;;;;2.40;2.40;;;;;20.16;19.74;99790.78;4982413;28;8834;-47
2021/04/28 01:51:58;;;;;;;;;2.00;2.00;;;;;20.14;19.85;99788.38;4983676;28;8794;-47
2021/04/28 01:54:24;;;;;;;;;1.60;1.60;;;;;20.13;19.85;99785.97;4983287;28;8784;-47
2021/04/28 01:56:51;;;;;;;;;2.00;2.00;;;;;20.11;19.92;99785.50;4974451;28;8778;-48
2021/04/28 01:59:18;;;;;;;;;2.00;2.00;;;;;20.08;19.82;99791.63;4979948;28;8826;-47
2021/04/28 02:01:46;;;;;;;;;2.60;2.60;;;;;20.07;19.98;99784.50;4980287;28;8771;-47
2021/04/28 02:04:13;;;;;;;;;1.60;1.60;;;;;20.03;20.31;99781.63;4982210;28;8792;-47
2021/04/28 02:06:40;;;;;;;;;2.80;2.80;;;;;20.02;20.02;99782.78;4978347;28;8777;-47
2021/04/28 02:09:06;;;;;;;;;2.80;2.80;;;;;20.03;19.96;99784.38;4968834;28;8767;-48
2021/04/28 02:11:31;;;;;;;;;2.00;2.00;;;;;20.00;19.79;99788.59;4983957;28;8815;-47
2021/04/28 02:13:58;;;;;;;;;3.00;3.00;;;;;20.00;19.98;99785.84;4975579;28;8762;-47
2021/04/28 02:16:25;;;;;;;;;1.80;1.80;;;;;19.96;20.00;99784.06;4982657;28;8815;-47
2021/04/28 02:18:51;;;;;;;;;2.00;2.00;;;;;19.94;19.93;99789.88;4981968;28;8907;-47
2021/04/28 02:21:16;;;;;;;;;2.00;2.00;;;;;19.93;20.04;99784.72;4981865;28;8822;-47
2021/04/28 02:23:43;;;;;;;;;2.00;2.00;;;;;19.91;20.15;99793.28;4985255;28;8756;-47
2021/04/28 02:26:08;;;;;;;;;2.60;2.60;;;;;19.91;20.04;99781.50;4982538;28;8796;-47
2021/04/28 02:28:34;;;;;;;;;2.00;2.00;;;;;19.91;20.04;99778.78;4977990;28;8752;-48
2021/04/28 02:31:00;;;;;;;;;2.00;2.00;;;;;19.86;19.90;99772.34;4982317;28;8947;-47
2021/04/28 02:33:26;;;;;;;;;2.00;2.00;;;;;19.89;19.97;99775.56;4980554;28;8919;-47
2021/04/28 02:35:55;;;;;;;;;2.00;2.00;;;;;19.87;20.00;99773.16;4981052;28;8792;-47
2021/04/28 02:38:23;;;;;;;;;2.40;2.40;;;;;19.85;19.99;99767.22;4984776;28;8808;-47
2021/04/28 02:40:50;;;;;;;;;2.00;2.00;;;;;19.80;20.16;99776.38;4983581;28;8792;-47
2021/04/28 02:43:18;;;;;;;;;3.00;2.00;;;;;19.78;20.30;99769.66;4981594;28;8777;-47
2021/04/28 02:45:47;;;;;;;;;2.20;2.20;;;;;19.76;20.23;99772.72;4979475;28;8806;-47
2021/04/28 02:48:13;;;;;;;;;2.00;2.00;;;;;19.75;20.23;99768.38;4982182;28;8777;-47
2021/04/28 02:50:39;;;;;;;;;1.60;1.60;;;;;19.74;20.14;99776.91;4978756;28;8902;-47
2021/04/28 02:53:14;;;;;;;;;3.20;3.20;;;;;19.71;20.25;99770.13;4985586;28;8771;-47
2021/04/28 02:55:40;;;;;;;;;2.00;2.00;;;;;19.70;20.12;99768.53;4979093;28;8853;-47
2021/04/28 02:58:06;;;;;;;;;1.00;1.00;;;;;19.68;20.18;99762.53;4984218;28;8791;-47
2021/04/28 03:00:31;;;;;;;;;2.40;2.40;;;;;19.68;20.41;99768.03;4978802;28;8855;-47
2021/04/28 03:02:57;;;;;;;;;3.00;2.00;;;;;19.66;20.33;99765.63;4979856;28;8793;-47
2021/04/28 03:05:24;;;;;;;;;1.00;1.00;;;;;19.65;20.35;99769.50;4975709;28;8939;-47
2021/04/28 03:07:51;;;;;;;;;1.60;1.60;;;;;19.64;20.21;99767.06;4979450;28;8811;-47
2021/04/28 03:10:17;;;;;;;;;3.00;3.00;;;;;19.64;20.35;99776.06;4982827;28;8820;-47
2021/04/28 03:12:45;;;;;;;;;1.80;1.80;;;;;19.62;20.51;99777.53;4988367;28;8788;-47
2021/04/28 03:15:16;;;;;;;;;2.00;2.00;;;;;19.60;20.35;99775.13;4975433;28;8794;-47
2021/04/28 03:17:42;;;;;;;;;1.80;1.80;;;;;19.59;20.22;99770.78;4986145;28;8808;-47
2021/04/28 03:20:09;;;;;;;;;2.00;2.00;;;;;19.57;20.52;99770.31;4988156;28;8792;-47
2021/04/28 03:22:39;;;;;;;;;2.40;2.40;;;;;19.57;20.43;99773.03;4986608;28;8760;-47
2021/04/28 03:25:07;;;;;;;;;1.80;1.80;;;;;19.56;20.45;99768.72;4987193;28;8787;-47
2021/04/28 03:27:32;;;;;;;;;1.00;1.00;;;;;19.54;20.53;99773.72;4987040;28;8852;-47
2021/04/28 03:29:58;;;;;;;;;2.00;2.00;;;;;19.52;20.35;99772.41;4986136;28;8784;-47
2021/04/28 03:32:24;;;;;;;;;1.75;1.75;;;;;19.51;20.58;99768.06;4981915;28;9507;-46
2021/04/28 03:34:49;;;;;;;;;2.50;2.00;;;;;19.49;20.38;99769.19;4981527;28;12321;-47
2021/04/28 03:37:14;;;;;;;;;2.00;2.00;;;;;19.48;20.39;99769.53;4985994;28;8842;-47
2021/04/28 03:39:41;;;;;;;;;1.00;1.00;;;;;19.41;20.66;99750.06;4988421;28;8792;-47
2021/04/28 03:42:06;;;;;;;;;2.60;2.60;;;;;19.47;20.52;99768.72;4984340;28;8770;-47
2021/04/28 03:44:32;;;;;;;;;2.50;2.50;;;;;19.44;20.55;99763.09;4978328;28;8802;-47
2021/04/28 03:46:57;;;;;;;;;1.50;1.50;;;;;19.44;20.52;99763.91;4982706;28;11357;-47
2021/04/28 03:49:23;;;;;;;;;1.75;1.75;;;;;19.44;20.48;99760.38;4973825;28;8821;-47
2021/04/28 03:51:48;;;;;;;;;2.00;2.00;;;;;19.40;20.78;99759.38;4984044;28;8851;-47
2021/04/28 03:54:15;;;;;;;;;2.00;2.00;;;;;19.34;20.57;99755.22;4985384;28;8786;-47
2021/04/28 03:56:41;;;;;;;;;2.00;2.00;;;;;19.41;20.45;99761.00;4982478;28;8807;-47
2021/04/28 03:59:07;;;;;;;;;2.00;2.00;;;;;19.38;20.50;99759.72;4979637;28;8775;-47
2021/04/28 04:01:33;;;;;;;;;2.40;2.40;;;;;19.36;20.64;99761.97;4972848;28;8900;-47
2021/04/28 04:03:59;;;;;;;;;1.80;1.80;;;;;19.37;20.65;99762.78;4975117;28;9785;-47
2021/04/28 04:06:24;;;;;;;;;2.00;2.00;;;;;19.35;20.58;99763.13;4973836;28;8780;-49
2021/04/28 04:08:49;;;;;;;;;2.00;2.00;;;;;19.33;20.65;99759.91;4980363;28;9684;-50
2021/04/28 04:11:15;;;;;;;;;2.00;2.00;;;;;19.32;20.64;99758.28;4978105;28;8783;-50
2021/04/28 04:13:40;;;;;;;;;2.00;2.00;;;;;19.30;20.65;99761.34;4979932;28;8803;-50
2021/04/28 04:16:06;;;;;;;;;3.00;3.00;;;;;19.30;20.67;99763.28;4974691;28;8788;-50
2021/04/28 04:18:31;;;;;;;;;2.00;2.00;;;;;19.29;20.83;99756.19;4971283;28;8809;-50
2021/04/28 04:20:57;;;;;;;;;2.00;2.00;;;;;19.27;20.88;99756.50;4971838;28;8944;-50
2021/04/28 04:23:22;;;;;;;;;2.00;2.00;;;;;19.27;20.80;99752.97;4980224;28;9533;-50
2021/04/28 04:25:48;;;;;;;;;2.00;2.00;;;;;19.26;20.74;99754.09;4978266;28;8839;-50
2021/04/28 04:28:13;;;;;;;;;2.75;2.75;;;;;19.22;20.84;99748.47;4978448;28;8974;-50
2021/04/28 04:30:38;;;;;;;;;2.50;2.25;;;;;19.24;20.68;99748.16;4976448;28;8890;-50
2021/04/28 04:33:04;;;;;;;;;2.00;2.00;;;;;19.23;20.71;99750.09;4973482;28;9002;-50
2021/04/28 04:35:29;;;;;;;;;3.00;3.00;;;;;19.23;20.69;99750.09;4957198;28;8796;-50
2021/04/28 04:37:55;;;;;;;;;2.25;2.25;;;;;19.19;20.88;99742.84;4979657;28;8780;-50
2021/04/28 04:40:20;;;;;;;;;3.00;3.00;;;;;19.19;20.85;99749.13;4978438;28;9549;-50
2021/04/28 04:42:46;;;;;;;;;2.00;2.00;;;;;19.13;20.79;99744.94;4978371;28;8800;-47
2021/04/28 04:45:11;;;;;;;;;2.50;2.50;;;;;19.20;21.02;99749.94;4974652;28;8797;-48
2021/04/28 04:47:37;;;;;;;;;2.00;2.00;;;;;19.19;20.83;99749.13;4971459;28;8760;-47
2021/04/28 04:50:05;;;;;;;;;2.00;2.00;;;;;19.23;20.81;99752.81;4975069;28;8789;-47
2021/04/28 04:52:31;;;;;;;;;2.00;2.00;;;;;19.19;20.85;99753.78;4979892;28;8738;-47
2021/04/28 04:54:56;;;;;;;;;2.50;2.50;;;;;19.17;20.91;99750.56;4977796;28;8784;-47
2021/04/28 04:57:22;;;;;;;;;2.00;2.00;;;;;19.15;20.85;99758.28;4984536;28;8794;-47
2021/04/28 04:59:47;;;;;;;;;2.00;2.00;;;;;19.13;20.95;99760.56;4979443;28;8792;-47
2021/04/28 05:02:12;;;;;;;;;2.00;2.00;;;;;19.11;20.79;99763.59;4979829;28;8784;-47
2021/04/28 05:04:38;;;;;;;;;1.75;1.75;;;;;19.11;20.87;99760.88;4984034;28;8760;-47
2021/04/28 05:07:03;;;;;;;;;2.00;2.00;;;;;19.10;21.13;99762.81;4981581;28;8780;-47
2021/04/28 05:09:28;;;;;;;;;2.00;2.00;;;;;19.10;20.98;99759.25;4973884;28;8815;-48
2021/04/28 05:11:54;;;;;;;;;2.00;2.00;;;;;19.10;21.03;99764.72;4976927;28;8935;-47
2021/04/28 05:14:19;;;;;;;;;2.25;2.25;;;;;19.06;21.04;99764.56;4961927;28;8792;-47
2021/04/28 05:16:44;;;;;;;;;3.50;3.50;;;;;19.08;21.13;99769.72;4976452;28;8776;-47
2021/04/28 05:19:10;;;;;;;;;2.50;2.50;;;;;19.06;20.95;99766.50;4980208;28;8834;-46
2021/04/28 05:21:35;;;;;;;;;1.50;1.50;;;;;19.06;21.28;99770.03;4977417;28;8839;-47
2021/04/28 05:24:01;;;;;;;;;2.00;2.00;;;;;19.04;20.96;99769.53;4980124;28;8758;-47
2021/04/28 05:26:27;;;;;;;;;2.20;2.00;;;;;19.03;21.03;99772.59;4977980;28;8966;-47
2021/04/28 05:28:53;;;;;;;;;2.20;2.20;;;;;19.03;21.03;99764.41;4980790;28;8780;-48
2021/04/28 05:31:18;;;;;;;;;2.00;2.00;;;;;19.01;20.93;99772.91;4972983;28;8800;-47
2021/04/28 05:33:44;;;;;;;;;2.50;2.00;;;;;19.00;21.11;99765.84;4974217;28;8838;-47
2021/04/28 05:36:09;;;;;;;;;2.25;2.25;;;;;18.99;20.88;99763.44;4972810;28;8780;-47
2021/04/28 05:38:35;;;;;;;;;2.00;2.00;;;;;19.00;21.09;99762.34;4979204;28;8798;-47
2021/04/28 05:41:00;;;;;;;;;2.00;2.00;;;;;18.97;21.05;99757.50;4975950;28;8971;-47
2021/04/28 05:43:26;;;;;;;;;3.00;3.00;;;;;18.96;21.00;99766.81;4975692;28;8816;-47
2021/04/28 05:45:52;;;;;;;;;2.75;2.00;;;;;18.96;21.21;99761.34;4978821;28;8796;-48
2021/04/28 05:48:18;;;;;;;;;2.00;2.00;;;;;18.96;21.07;99759.44;4973740;28;8906;-47
2021/04/28 05:50:45;;;;;;;;;3.00;2.00;;;;;18.96;21.27;99756.69;4974643;28;8810;-48
2021/04/28 05:53:11;;;;;;;;;2.80;2.20;;;;;18.94;21.13;99753.47;4973282;28;9702;-47
2021/04/28 05:55:37;;;;;;;;;2.00;2.00;;;;;18.92;21.18;99761.97;4977417;28;9483;-47
2021/04/28 05:58:03;;;;;;;;;2.00;2.00;;;;;18.92;21.09;99758.44;4980566;28;8784;-47
2021/04/28 06:00:28;;;;;;;;;1.60;1.60;;;;;18.91;21.18;99760.38;4978724;28;8843;-47
2021/04/28 06:02:54;;;;;;;;;3.00;3.00;;;;;18.90;21.24;99760.72;4974482;28;8811;-47
2021/04/28 06:05:20;;;;;;;;;2.00;2.00;;;;;18.88;21.02;99758.28;4975478;28;8822;-47
2021/04/28 06:07:45;;;;;;;;;2.00;2.00;;;;;18.89;21.20;99757.19;4974431;28;8816;-47
2021/04/28 06:10:12;;;;;;;;;2.00;2.00;;;;;18.89;20.90;99759.91;4974413;28;8814;-49
2021/04/28 06:12:38;;;;;;;;;2.00;2.00;;;;;18.69;21.99;99757.75;4969009;28;8780;-47
2021/04/28 06:15:04;;;;;;;;;3.25;3.00;;;;;18.76;22.39;99768.22;4968415;28;8869;-47
2021/04/28 06:17:30;;;;;;;;;2.00;2.00;;;;;18.79;22.31;99752.00;4975781;28;11414;-47
2021/04/28 06:19:55;;;;;;;;;2.00;2.00;;;;;18.81;21.91;99755.19;4976330;28;8770;-47
2021/04/28 06:22:20;;;;;;;;;2.25;2.00;;;;;18.82;21.77;99754.13;4977214;28;8824;-47
2021/04/28 06:24:47;;;;;;;;;2.00;2.00;;;;;18.81;21.75;99755.19;4973499;28;8947;-47
2021/04/28 06:27:12;;;;;;;;;2.00;2.00;;;;;18.80;21.68;99748.13;4977645;28;8824;-47
2021/04/28 06:29:38;;;;;;;;;2.00;2.00;;;;;18.81;21.52;99746.22;4977828;28;8796;-47
2021/04/28 06:32:03;;;;;;;;;1.25;1.25;;;;;18.81;21.48;99746.22;4977567;28;8795;-47
2021/04/28 06:34:29;;;;;;;;;2.50;2.00;;;;;18.79;21.52;99746.53;4973883;28;8743;-47
2021/04/28 06:36:54;;;;;;;;;2.00;2.00;;;;;18.79;21.31;99738.31;4976849;28;8798;-47
2021/04/28 06:39:19;;;;;;;;;3.00;3.00;;;;;18.76;21.50;99732.69;4971014;28;8798;-47
2021/04/28 06:41:45;;;;;;;;;1.75;1.75;;;;;18.79;21.57;99732.84;4973207;28;8814;-47
2021/04/28 06:44:10;;;;;;;;;2.00;2.00;;;;;18.76;21.47;99736.22;4979015;28;8782;-47
2021/04/28 06:46:35;;;;;;;;;2.75;2.00;;;;;18.77;21.30;99742.50;4978129;28;9581;-47
2021/04/28 06:49:01;;;;;;;;;2.00;2.00;;;;;18.72;21.43;99735.28;4983591;28;8840;-47
2021/04/28 06:51:26;;;;;;;;;2.00;2.00;;;;;18.74;21.50;99731.06;4975713;28;8880;-47
2021/04/28 06:53:52;;;;;;;;;2.00;2.00;;;;;18.74;21.41;99733.00;4980667;28;8886;-47
2021/04/28 06:56:17;;;;;;;;;2.00;2.00;;;;;18.74;21.48;99735.75;4981956;28;8776;-47
2021/04/28 06:58:45;;;;;;;;;1.50;1.50;;;;;18.74;21.31;99735.75;4976611;28;9436;-47
2021/04/28 07:01:11;;;;;;;;;2.00;2.00;;;;;18.72;21.47;99727.88;4981202;28;8908;-47
2021/04/28 07:03:36;;;;;;;;;2.00;2.00;;;;;18.70;21.58;99732.06;4980120;28;8765;-47
2021/04/28 07:06:02;;;;;;;;;2.00;2.00;;;;;18.70;21.52;99729.31;4980368;28;8778;-47
2021/04/28 07:08:27;;;;;;;;;2.00;2.00;;;;;18.68;21.58;99726.09;4978521;28;8790;-47
2021/04/28 07:10:52;;;;;;;;;2.25;2.25;;;;;18.69;21.47;99727.69;4979599;28;8802;-47
2021/04/28 07:13:18;;;;;;;;;2.00;2.00;;;;;18.69;21.28;99724.97;4977870;28;8904;-47
2021/04/28 07:15:43;;;;;;;;;1.00;1.00;;;;;18.67;21.63;99719.03;4981276;28;8806;-47
2021/04/28 07:18:08;;;;;;;;;2.00;2.00;;;;;18.67;21.46;99719.03;4979275;28;9614;-47
2021/04/28 07:20:35;;;;;;;;;2.00;2.00;;;;;18.68;21.46;99717.88;4976081;28;9621;-47
2021/04/28 07:23:00;;;;;;;;;1.20;1.20;;;;;18.67;21.51;99719.03;4982375;28;8789;-47
2021/04/28 07:25:25;;;;;;;;;2.00;2.00;;;;;18.65;21.61;99711.16;4981529;28;8812;-47
2021/04/28 07:27:51;;;;;;;;;1.50;1.50;;;;;18.64;21.67;99716.94;4976767;28;8814;-47
2021/04/28 07:30:17;;;;;;;;;2.00;2.00;;;;;18.63;21.60;99715.34;4978762;28;9705;-47
2021/04/28 07:32:43;;;;;;;;;2.00;2.00;;;;;18.62;21.68;99713.72;4977777;28;8779;-47
2021/04/28 07:35:11;;;;;;;;;2.00;2.00;;;;;18.62;21.61;99711.00;4977599;28;8780;-47
2021/04/28 07:37:36;;;;;;;;;1.00;1.00;;;;;18.62;21.58;99711.00;4980093;28;8811;-47
2021/04/28 07:40:04;;;;;;;;;1.25;1.25;;;;;18.60;21.70;99705.03;4982408;28;8824;-46
2021/04/28 07:42:30;;;;;;;;;2.00;2.00;;;;;18.59;21.42;99701.53;4978197;28;8818;-47
2021/04/28 07:44:55;;;;;;;;;1.50;1.50;;;;;18.58;21.55;99702.63;4979691;28;8772;-47
2021/04/28 07:47:20;;;;;;;;;1.25;1.25;;;;;18.58;21.63;99699.09;4976279;28;8906;-47
2021/04/28 07:49:46;;;;;;;;;2.25;2.25;;;;;18.58;21.62;99701.84;4978197;28;8875;-47
2021/04/28 07:52:11;;;;;;;;;2.00;2.00;;;;;18.57;21.67;99701.00;4977581;28;8836;-47
2021/04/28 07:54:36;;;;;;;;;2.75;2.75;;;;;18.55;21.69;99704.06;4978890;28;8833;-47
2021/04/28 07:57:02;;;;;;;;;2.00;2.00;;;;;18.54;21.74;99699.72;4981700;28;8824;-47
2021/04/28 07:59:28;;;;;;;;;2.00;2.00;;;;;18.54;21.60;99698.94;4976530;28;9590;-46
2021/04/28 08:01:53;;;;;;;;;2.00;2.00;;;;;18.54;21.65;99696.22;4979516;28;8788;-47
2021/04/28 08:04:20;;;;;;;;;1.00;1.00;;;;;18.54;21.57;99696.22;4980437;28;8837;-47
2021/04/28 08:06:47;;;;;;;;;1.00;1.00;;;;;18.52;21.70;99693.78;4978689;28;8851;-47
2021/04/28 08:09:13;;;;;;;;;2.00;2.00;;;;;18.53;21.87;99698.13;4978026;28;8779;-47
2021/04/28 08:11:38;;;;;;;;;1.20;1.20;;;;;18.42;21.65;99682.38;4981771;28;8791;-47
2021/04/28 08:14:04;;;;;;;;;2.00;2.00;;;;;18.50;21.55;99696.03;4981355;28;8774;-47
2021/04/28 08:16:32;;;;;;;;;1.25;1.25;;;;;18.50;21.73;99700.69;4977591;28;8948;-47
2021/04/28 08:18:57;;;;;;;;;2.00;2.00;;;;;18.49;21.98;99697.16;4983442;28;8808;-47
2021/04/28 08:21:23;;;;;;;;;1.00;1.00;;;;;18.49;21.76;99693.63;4974766;28;9623;-47
2021/04/28 08:23:48;;;;;;;;;1.00;1.00;;;;;18.47;21.80;99695.88;4976742;28;9517;-47
2021/04/28 08:26:15;;;;;;;;;1.00;1.00;;;;;18.47;21.96;99696.69;4974480;28;9567;-47
2021/04/28 08:28:42;;;;;;;;;2.00;2.00;;;;;18.47;21.80;99690.41;4975202;28;8777;-47
2021/04/28 08:31:09;;;;;;;;;3.00;3.00;;;;;18.44;21.83;99694.56;4980135;28;8799;-47
2021/04/28 08:33:35;;;;;;;;;2.00;2.00;;;;;18.44;21.63;99691.06;4979001;28;8874;-47
2021/04/28 08:36:01;;;;;;;;;2.75;2.00;;;;;18.43;22.00;99687.50;4974797;28;8786;-47
2021/04/28 08:38:26;;;;;;;;;2.00;2.00;;;;;18.45;21.89;99690.72;4978843;28;12332;-47
2021/04/28 08:40:51;;;;;;;;;1.75;1.75;;;;;18.37;21.77;99679.78;4977683;28;8890;-47
2021/04/28 08:43:21;;;;;;;;;1.75;1.75;;;;;18.43;21.94;99692.16;4975342;28;8904;-47
2021/04/28 08:45:46;;;;;;;;;2.00;2.00;;;;;18.42;21.97;99685.91;4978864;28;8783;-47
2021/04/28 08:48:11;;;;;;;;;2.00;2.00;;;;;18.40;21.75;99682.69;4978151;28;9536;-47
2021/04/28 08:50:37;;;;;;;;;3.00;2.00;;;;;18.41;21.94;99681.56;4976611;28;8861;-47
2021/04/28 08:53:02;;;;;;;;;2.00;2.00;;;;;18.40;21.88;99670.94;4980344;28;8781;-47
2021/04/28 08:55:28;;;;;;;;;2.00;2.00;;;;;18.40;21.93;99679.97;4975950;28;8795;-46
2021/04/28 08:57:53;;;;;;;;;2.00;2.00;;;;;18.38;22.09;99671.28;4978921;28;8781;-47
2021/04/28 09:00:19;;;;;;;;;2.00;2.00;;;;;18.37;21.73;99675.13;4978298;28;8780;-47
2021/04/28 09:02:52;;;;;;;;;1.00;1.00;;;;;18.37;21.85;99675.13;4979844;28;8792;-46
2021/04/28 09:05:18;;;;;;;;;2.00;2.00;;;;;18.38;22.10;99665.00;4977691;28;8842;-47
2021/04/28 09:07:45;;;;;;;;;2.00;2.00;;;;;18.38;22.02;99659.53;4978977;28;9512;-47
2021/04/28 09:10:12;;;;;;;;;1.00;1.00;;;;;18.37;21.68;99666.94;4972258;28;8782;-46
2021/04/28 09:12:38;;;;;;;;;1.00;1.00;;;;;18.36;22.10;99662.59;4977434;28;8824;-47
2021/04/28 09:15:06;;;;;;;;;1.40;1.40;;;;;18.34;22.05;99659.38;4979822;28;8760;-47
2021/04/28 09:17:53;;;;;;;;;2.00;2.00;;;;;18.34;22.10;99654.72;4977301;28;8796;-46
2021/04/28 09:20:29;;;;;;;;;1.00;1.00;;;;;18.35;22.02;99658.28;4977449;28;8831;-47
2021/04/28 09:23:11;;;;;;;;;2.00;2.00;;;;;18.34;22.12;99659.38;4980977;28;8777;-47
2021/04/28 09:25:41;;;;;;;;;1.00;1.00;;;;;18.32;22.08;99661.63;4977667;28;8923;-47
2021/04/28 09:28:19;;;;;;;;;1.00;1.00;;;;;18.32;22.03;99658.91;4976365;28;8808;-47
2021/04/28 09:30:44;;;;;;;;;2.00;2.00;;;;;18.30;22.02;99658.41;4976419;28;15943;-47
2021/04/28 09:33:10;;;;;;;;;2.50;2.00;;;;;18.31;21.88;99658.09;4978784;28;8868;-47
2021/04/28 09:35:36;;;;;;;;;1.60;1.60;;;;;18.30;21.98;99659.22;4979507;28;8891;-46
2021/04/28 09:38:02;;;;;;;;;2.00;2.00;;;;;18.30;21.98;99655.69;4978429;28;8927;-47
2021/04/28 09:40:56;;;;;;;;;1.00;1.00;;;;;18.30;21.99;99655.69;4977838;28;8818;-47
2021/04/28 09:43:22;;;;;;;;;1.20;1.20;;;;;18.26;22.14;99646.53;4978240;28;9544;-46
2021/04/28 09:45:51;;;;;;;;;1.00;1.00;;;;;18.31;22.02;99654.53;4978198;28;8796;-46
2021/04/28 09:48:23;;;;;;;;;1.00;1.00;;;;;18.30;22.05;99648.28;4976035;28;8780;-46
2021/04/28 09:50:49;;;;;;;;;1.40;1.40;;;;;18.30;22.13;99655.69;4979639;28;8882;-46
2021/04/28 09:53:23;;;;;;;;;1.60;1.60;;;;;18.29;22.00;99645.88;4977350;28;8792;-46
2021/04/28 09:55:48;;;;;;;;;2.00;2.00;;;;;18.17;22.18;99633.66;4978521;28;8777;-47
2021/04/28 09:58:14;;;;;;;;;2.00;2.00;;;;;18.28;21.94;99644.28;4977066;28;8780;-46
2021/04/28 10:00:40;;;;;;;;;1.00;1.00;;;;;18.27;22.15;99648.13;4978282;28;8844;-46
2021/04/28 10:03:08;;;;;;;;;2.00;1.60;;;;;18.25;22.23;99653.91;4977237;28;8778;-46
2021/04/28 10:05:35;;;;;;;;;2.00;2.00;;;;;18.26;22.07;99643.81;4973495;28;8775;-46
2021/04/28 10:08:08;;;;;;;;;1.00;1.00;;;;;18.25;22.16;99640.25;4976195;28;8799;-46
2021/04/28 10:10:34;;;;;;;;;1.00;1.00;;;;;18.26;22.22;99632.88;4972699;28;8868;-47
2021/04/28 10:12:59;;;;;;;;;2.00;2.00;;;;;18.24;22.22;99632.38;4980003;28;8834;-46
2021/04/28 10:15:25;;;;;;;;;1.50;1.00;;;;;18.24;22.07;99635.09;4976771;28;8792;-47
2021/04/28 10:17:51;;;;;;;;;1.00;1.00;;;;;18.23;22.15;99637.03;4975482;28;8791;-47
2021/04/28 10:20:19;;;;;;;;;1.80;1.80;;;;;18.22;22.19;99629.16;4973597;28;8816;-47
2021/04/28 10:22:45;;;;;;;;;1.00;1.00;;;;;18.20;22.23;99632.22;4975510;28;9511;-46
2021/04/28 10:25:14;;;;;;;;;1.60;1.60;;;;;18.21;22.16;99627.59;4973816;28;8811;-46
2021/04/28 10:27:40;;;;;;;;;2.00;1.80;;;;;18.21;21.93;99627.59;4977485;28;8778;-46
2021/04/28 10:30:07;;;;;;;;;1.40;1.40;;;;;18.17;22.17;99617.28;4974199;28;8840;-47
2021/04/28 10:32:35;;;;;;;;;1.00;1.00;;;;;18.19;22.11;99627.91;4977133;28;8821;-47
2021/04/28 10:35:05;;;;;;;;;1.40;1.40;;;;;18.17;22.20;99616.50;4980909;28;8792;-47
2021/04/28 10:37:33;;;;;;;;;2.00;2.00;;;;;18.16;22.31;99621.13;4974668;28;8774;-47
2021/04/28 10:39:58;;;;;;;;;1.00;1.00;;;;;18.11;22.21;99606.84;4976592;28;8798;-47
2021/04/28 10:42:27;;;;;;;;;1.25;1.25;;;;;18.15;22.16;99614.09;4976773;28;8877;-47
2021/04/28 10:44:53;;;;;;;;;1.80;1.80;;;;;18.15;22.35;99619.53;4975463;28;8801;-47
2021/04/28 10:47:24;;;;;;;;;2.00;2.00;;;;;18.13;22.18;99608.16;4972280;28;8825;-47
2021/04/28 10:50:23;;;;;;;;;2.00;2.00;;;;;18.15;22.16;99608.63;4979071;28;9832;-47
2021/04/28 10:53:00;;;;;;;;;1.00;1.00;;;;;18.12;22.15;99601.06;4973619;28;8760;-47
2021/04/28 10:55:44;;;;;;;;;1.80;1.80;;;;;18.14;22.02;99611.66;4970883;28;8912;-47
2021/04/28 10:58:25;;;;;;;;;2.00;2.00;;;;;18.14;22.36;99606.22;4977884;28;8804;-47
2021/04/28 11:01:04;;;;;;;;;1.00;1.00;;;;;18.13;22.32;99605.41;4978432;28;8828;-46
2021/04/28 11:03:36;;;;;;;;;1.60;1.60;;;;;18.04;22.21;99584.69;4977535;28;8780;-46
2021/04/28 11:06:20;;;;;;;;;2.00;2.00;;;;;18.12;22.27;99606.53;4970404;28;9281;-47
2021/04/28 11:09:00;;;;;;;;;1.00;1.00;;;;;18.11;22.15;99596.72;4976735;28;8810;-47
2021/04/28 11:11:31;;;;;;;;;1.00;1.00;;;;;18.09;22.39;99603.63;4973419;28;8794;-46
2021/04/28 11:14:51;;;;;;;;;1.80;1.80;;;;;18.08;22.47;99596.56;4974449;28;8773;-47
2021/04/28 11:17:03;;;;;;;;;1.00;1.00;;;;;18.07;22.14;99603.16;4974613;28;8808;-47
2021/04/28 11:19:32;;;;;;;;;1.80;1.80;;;;;18.06;22.37;99598.81;4978772;28;8911;-47
2021/04/28 11:22:07;;;;;;;;;1.00;1.00;;;;;18.07;22.06;99601.22;4978417;28;8828;-46
2021/04/28 11:24:52;;;;;;;;;2.40;1.80;;;;;18.21;22.26;99592.88;4974145;28;8810;-47
2021/04/28 11:27:43;;;;;;;;;1.00;1.00;;;;;18.23;22.21;99598.03;4978103;28;8802;-47
2021/04/28 11:30:37;;;;;;;;;1.00;1.00;;;;;18.21;22.04;99594.81;4981564;28;8911;-47
2021/04/28 11:33:20;;;;;;;;;1.60;1.60;;;;;18.18;22.23;99590.78;4975901;28;9403;-47
2021/04/28 11:35:54;;;;;;;;;1.00;1.00;;;;;18.16;22.29;99588.38;4978580;28;8813;-47
2021/04/28 11:38:27;;;;;;;;;1.40;1.40;;;;;18.21;22.11;99589.34;4980765;28;8950;-47
2021/04/28 11:41:13;;;;;;;;;1.00;1.00;;;;;18.20;22.38;99593.19;4980512;28;8815;-47
2021/04/28 11:43:46;;;;;;;;;2.00;2.00;;;;;18.16;22.25;99588.38;4978406;28;8738;-47